Time;durP1;ratioP1;P1;durP2;ratioP2;P2;SDS_P1;SDS_P2;PMS_P1;PMS_P2;Temp;Humidity;BMP_temperature;BMP_pressure;BME280_temperature;BME280_humidity;BME280_pressure;Samples;Min_cycle;Max_cycle;Signal;HPM_P1;HPM_P2
2023/05/20 00:00:19;;;;;;;12.02;5.90;;;;;;;10.50;86.43;102246.16;5093507;28;20402;-56
2023/05/20 00:02:44;;;;;;;12.70;5.35;;;;;;;10.49;86.20;102241.81;5093203;28;20079;-56
2023/05/20 00:05:10;;;;;;;10.40;5.43;;;;;;;10.41;87.05;102236.25;5094077;28;20023;-56
2023/05/20 00:07:35;;;;;;;14.48;6.13;;;;;;;10.42;86.71;102240.59;5092981;28;20024;-56
2023/05/20 00:10:00;;;;;;;10.18;5.03;;;;;;;10.38;87.17;102231.81;5093961;28;20464;-56
2023/05/20 00:12:26;;;;;;;14.18;5.38;;;;;;;10.30;88.31;102232.19;5093409;28;20533;-56
2023/05/20 00:14:51;;;;;;;16.40;6.30;;;;;;;10.27;88.56;102237.19;5092904;28;20024;-56
2023/05/20 00:17:16;;;;;;;12.52;5.38;;;;;;;10.23;88.82;102236.13;5093099;28;20115;-55
2023/05/20 00:19:41;;;;;;;12.70;6.18;;;;;;;10.17;89.34;102246.09;5093828;28;20032;-56
2023/05/20 00:22:07;;;;;;;14.02;5.85;;;;;;;10.11;90.04;102244.09;5092613;28;20071;-55
2023/05/20 00:24:32;;;;;;;11.35;6.03;;;;;;;10.08;90.27;102246.47;5093189;28;20476;-56
2023/05/20 00:26:57;;;;;;;12.98;5.70;;;;;;;10.08;90.46;102240.44;5093475;28;20024;-56
2023/05/20 00:29:23;;;;;;;13.75;6.05;;;;;;;10.04;90.59;102240.28;5092408;28;20024;-55
2023/05/20 00:31:48;;;;;;;16.00;6.90;;;;;;;9.97;91.31;102239.88;5093432;28;20027;-56
2023/05/20 00:34:13;;;;;;;11.65;6.63;;;;;;;9.91;91.72;102235.25;5093583;28;20020;-56
2023/05/20 00:36:38;;;;;;;15.10;6.93;;;;;;;9.85;92.30;102234.91;5092452;28;20497;-56
2023/05/20 00:39:04;;;;;;;15.73;6.28;;;;;;;9.87;92.17;102233.34;5093509;28;20422;-56
2023/05/20 00:41:29;;;;;;;13.38;6.38;;;;;;;9.89;91.88;102234.31;5092935;28;20032;-55
2023/05/20 00:43:55;;;;;;;16.75;7.05;;;;;;;9.84;92.58;102236.63;5092513;28;20365;-56
2023/05/20 00:46:22;;;;;;;15.85;7.03;;;;;;;9.82;93.09;102235.63;5092804;28;20016;-56
2023/05/20 00:48:49;;;;;;;14.30;6.70;;;;;;;9.82;93.05;102227.91;5093161;28;20110;-56
2023/05/20 00:51:15;;;;;;;15.85;7.00;;;;;;;9.82;93.01;102227.91;5092850;28;20032;-55
2023/05/20 00:53:41;;;;;;;14.10;6.78;;;;;;;9.77;93.21;102229.34;5093289;28;20030;-56
2023/05/20 00:56:07;;;;;;;15.23;6.80;;;;;;;9.75;93.61;102228.41;5092887;28;20119;-56
2023/05/20 00:58:35;;;;;;;12.82;6.80;;;;;;;9.71;93.86;102226.47;5092200;28;20095;-56
2023/05/20 01:01:01;;;;;;;15.35;6.75;;;;;;;9.68;94.09;102218.56;5092837;28;20024;-56
2023/05/20 01:03:27;;;;;;;13.15;7.10;;;;;;;9.68;94.05;102221.13;5092459;28;20028;-56
2023/05/20 01:05:52;;;;;;;18.63;6.75;;;;;;;9.66;94.07;102221.03;5092364;28;20433;-55
2023/05/20 01:08:17;;;;;;;15.10;6.80;;;;;;;9.66;94.62;102220.16;5092766;28;20020;-56
2023/05/20 01:10:46;;;;;;;13.10;7.03;;;;;;;9.61;95.21;102231.91;5092817;28;20096;-56
2023/05/20 01:13:16;;;;;;;11.32;7.00;;;;;;;9.56;95.79;102223.91;5092418;28;20097;-55
2023/05/20 01:15:45;;;;;;;12.20;6.97;;;;;;;9.52;96.03;102222.84;5092914;28;20421;-56
2023/05/20 01:18:17;;;;;;;16.60;7.57;;;;;;;9.51;95.94;102221.06;5092005;28;20052;-56
2023/05/20 01:20:46;;;;;;;16.30;6.90;;;;;;;9.49;96.31;102212.38;5093006;28;20035;-56
2023/05/20 01:23:11;;;;;;;13.98;7.32;;;;;;;9.53;95.79;102219.47;5092962;28;20024;-56
2023/05/20 01:25:36;;;;;;;16.38;7.43;;;;;;;9.47;96.27;102213.97;5091780;28;20025;-56
2023/05/20 01:28:01;;;;;;;14.95;7.82;;;;;;;9.42;96.84;102210.25;5092871;28;20374;-54
2023/05/20 01:30:32;;;;;;;16.40;7.50;;;;;;;9.39;97.62;102212.69;5092371;28;20036;-56
2023/05/20 01:33:02;;;;;;;15.25;8.00;;;;;;;9.33;97.97;102214.91;5092159;28;20380;-56
2023/05/20 01:35:28;;;;;;;13.30;7.25;;;;;;;9.30;97.94;102209.59;5092497;28;20058;-55
2023/05/20 01:37:56;;;;;;;14.13;7.82;;;;;;;9.27;98.67;102209.41;5093703;28;20376;-56
2023/05/20 01:40:22;;;;;;;19.50;8.60;;;;;;;9.26;98.54;102212.75;5095904;28;20031;-56
2023/05/20 01:42:51;;;;;;;16.42;7.65;;;;;;;9.25;98.72;102211.00;5096449;28;20070;-56
2023/05/20 01:45:18;;;;;;;18.45;7.85;;;;;;;9.24;98.63;102197.25;5096208;28;20020;-56
2023/05/20 01:47:46;;;;;;;16.48;8.00;;;;;;;9.16;99.54;102209.66;5096162;28;20048;-56
2023/05/20 01:50:11;;;;;;;14.45;8.00;;;;;;;9.17;99.28;102210.56;5096686;28;20024;-56
2023/05/20 01:52:37;;;;;;;15.75;7.85;;;;;;;9.15;99.69;102210.47;5095937;28;20064;-56
2023/05/20 01:55:02;;;;;;;16.00;8.00;;;;;;;9.17;99.71;102205.44;5095692;28;20020;-56
2023/05/20 01:57:27;;;;;;;14.52;8.23;;;;;;;9.14;100.00;102198.44;5095967;28;20032;-56
2023/05/20 01:59:53;;;;;;;12.90;7.50;;;;;;;9.12;99.91;102200.00;5096221;28;20016;-56
2023/05/20 02:02:18;;;;;;;12.45;8.10;;;;;;;9.09;100.00;102197.28;5095503;28;20032;-56
2023/05/20 02:04:48;;;;;;;17.08;8.20;;;;;;;9.04;100.00;102196.13;5096387;28;20024;-56
2023/05/20 02:07:17;;;;;;;15.07;8.13;;;;;;;9.00;100.00;102199.28;5095425;28;20069;-55
2023/05/20 02:09:43;;;;;;;17.90;8.80;;;;;;;9.03;100.00;102199.50;5096151;28;20020;-56
2023/05/20 02:12:09;;;;;;;14.88;7.85;;;;;;;9.05;100.00;102192.72;5096189;28;20081;-56
2023/05/20 02:14:35;;;;;;;16.25;8.13;;;;;;;9.01;100.00;102193.34;5094840;28;20883;-55
2023/05/20 02:17:00;;;;;;;17.65;8.55;;;;;;;8.99;100.00;102192.41;5096028;28;20043;-56
2023/05/20 02:19:26;;;;;;;15.90;8.88;;;;;;;8.97;100.00;102193.97;5095767;28;20111;-56
2023/05/20 02:21:51;;;;;;;17.00;8.40;;;;;;;8.90;100.00;102191.06;5095117;28;20035;-55
2023/05/20 02:24:16;;;;;;;16.27;8.18;;;;;;;8.89;100.00;102186.69;5095555;28;20048;-56
2023/05/20 02:26:44;;;;;;;17.27;8.40;;;;;;;8.88;100.00;102190.09;5095767;28;20114;-55
2023/05/20 02:29:09;;;;;;;;;;;;;;;8.98;99.66;102188.06;5095655;28;20039;-56
2023/05/20 02:31:35;;;;;;;15.18;8.60;;;;;;;8.90;100.00;102187.59;5095475;28;20379;-55
2023/05/20 02:34:00;;;;;;;15.48;8.73;;;;;;;8.85;100.00;102184.75;5095309;28;20028;-56
2023/05/20 02:36:26;;;;;;;19.20;8.38;;;;;;;8.83;100.00;102181.22;5094861;28;20074;-56
2023/05/20 02:38:55;;;;;;;14.30;8.65;;;;;;;8.79;100.00;102180.94;5095591;28;20111;-56
2023/05/20 02:41:21;;;;;;;12.82;8.40;;;;;;;8.83;100.00;102183.81;5095143;28;20036;-55
2023/05/20 02:43:46;;;;;;;18.80;8.88;;;;;;;8.78;100.00;102182.66;5095115;28;20027;-56
2023/05/20 02:46:11;;;;;;;14.85;8.45;;;;;;;8.78;100.00;102192.94;5095308;28;20061;-56
2023/05/20 02:48:37;;;;;;;18.13;8.85;;;;;;;8.81;100.00;102187.06;5094842;28;20039;-56
2023/05/20 02:51:02;;;;;;;24.05;9.18;;;;;;;8.80;100.00;102191.31;5094787;28;20107;-56
2023/05/20 02:53:27;;;;;;;17.02;8.15;;;;;;;8.79;100.00;102180.94;5094860;28;20028;-56
2023/05/20 02:55:53;;;;;;;15.63;8.63;;;;;;;8.78;100.00;102182.66;5095036;28;20482;-55
2023/05/20 02:58:24;;;;;;;16.70;8.60;;;;;;;8.73;100.00;102178.91;5094560;28;20028;-56
2023/05/20 03:00:50;;;;;;;21.92;9.18;;;;;;;8.70;100.00;102181.28;5095051;28;20424;-56
2023/05/20 03:03:15;;;;;;;17.17;8.52;;;;;;;8.70;100.00;102177.06;5094639;28;20467;-56
2023/05/20 03:05:44;;;;;;;14.02;7.88;;;;;;;8.68;100.00;102180.34;5094720;28;20058;-56
2023/05/20 03:08:10;;;;;;;19.23;9.13;;;;;;;8.70;100.00;102181.28;5095051;28;20030;-56
2023/05/20 03:10:37;;;;;;;14.35;8.40;;;;;;;8.77;100.00;102180.00;5094060;28;20032;-56
2023/05/20 03:13:03;;;;;;;14.60;8.50;;;;;;;8.75;100.00;102176.44;5095039;28;20028;-55
2023/05/20 03:15:29;;;;;;;18.00;8.20;;;;;;;8.81;100.00;102179.38;5094764;28;20123;-56
2023/05/20 03:17:54;;;;;;;12.18;8.15;;;;;;;8.78;100.00;102174.94;5093895;28;20127;-56
2023/05/20 03:20:20;;;;;;;17.42;8.88;;;;;;;8.68;100.00;102181.19;5094468;28;20027;-56
2023/05/20 03:22:45;;;;;;;14.45;8.38;;;;;;;8.69;100.00;102177.84;5094582;28;20043;-56
2023/05/20 03:25:11;;;;;;;17.08;9.02;;;;;;;8.61;100.00;102170.47;5093850;28;20031;-56
2023/05/20 03:27:36;;;;;;;16.42;8.13;;;;;;;8.61;100.00;102179.09;5094446;28;20525;-56
2023/05/20 03:30:03;;;;;;;13.90;8.25;;;;;;;8.59;100.00;102183.25;5094413;28;20020;-56
2023/05/20 03:32:29;;;;;;;16.07;9.10;;;;;;;8.62;100.00;102185.97;5093778;28;20020;-56
2023/05/20 03:34:56;;;;;;;14.63;9.27;;;;;;;8.61;100.00;102184.22;5094411;28;20357;-56
2023/05/20 03:37:22;;;;;;;;;;;;;;;8.68;100.00;102188.03;5094271;28;20024;-56
2023/05/20 03:39:47;;;;;;;17.43;8.73;;;;;;;8.57;100.00;102180.59;5094050;28;19908;-56
2023/05/20 03:42:12;;;;;;;15.50;8.45;;;;;;;8.54;100.00;102185.53;5094397;28;20862;-55
2023/05/20 03:44:37;;;;;;;14.50;8.50;;;;;;;8.56;100.00;102176.22;5093913;28;20467;-55
2023/05/20 03:47:03;;;;;;;19.13;8.98;;;;;;;8.57;100.00;102182.25;5093763;28;20028;-55
2023/05/20 03:49:28;;;;;;;13.13;8.93;;;;;;;8.57;100.00;102171.97;5093921;28;20027;-55
2023/05/20 03:51:53;;;;;;;14.48;8.65;;;;;;;8.56;100.00;102175.38;5093890;28;20365;-55
2023/05/20 03:54:19;;;;;;;15.77;9.05;;;;;;;8.57;100.00;102178.00;5093432;28;20020;-55
2023/05/20 03:56:45;;;;;;;18.98;9.20;;;;;;;8.57;100.00;102180.59;5094273;28;20016;-55
2023/05/20 03:59:11;;;;;;;12.30;7.97;;;;;;;8.56;100.00;102176.22;5093877;28;20024;-55
2023/05/20 04:01:36;;;;;;;14.05;8.38;;;;;;;8.56;100.00;102178.81;5092463;28;20073;-55
2023/05/20 04:04:02;;;;;;;20.20;8.85;;;;;;;8.60;100.00;102176.41;5093867;28;20035;-55
2023/05/20 04:06:27;;;;;;;17.10;9.20;;;;;;;8.59;100.00;102169.50;5093237;28;20383;-55
2023/05/20 04:08:53;;;;;;;14.35;8.52;;;;;;;8.58;100.00;102173.75;5093216;28;20052;-55
2023/05/20 04:11:18;;;;;;;16.35;9.00;;;;;;;8.57;100.00;102175.44;5093770;28;20020;-55
2023/05/20 04:13:44;;;;;;;15.15;8.52;;;;;;;8.60;100.00;102169.59;5092914;28;20484;-55
2023/05/20 04:16:09;;;;;;;14.55;8.75;;;;;;;8.65;100.00;102169.84;5093665;28;20028;-55
2023/05/20 04:18:37;;;;;;;16.15;8.57;;;;;;;8.71;100.00;102170.22;5093411;28;20055;-55
2023/05/20 04:21:03;;;;;;;16.95;8.80;;;;;;;8.75;100.00;102181.56;5092719;28;20115;-55
2023/05/20 04:23:28;;;;;;;13.90;8.95;;;;;;;8.76;100.00;102179.09;5093448;28;20154;-55
2023/05/20 04:25:54;;;;;;;14.43;8.52;;;;;;;8.78;100.00;102182.66;5093445;28;20035;-55
2023/05/20 04:28:22;;;;;;;14.38;8.75;;;;;;;8.82;100.00;102179.44;5092524;28;20498;-55
2023/05/20 04:30:48;;;;;;;14.68;8.40;;;;;;;8.85;100.00;102184.75;5093334;28;20024;-55
2023/05/20 04:33:15;;;;;;;15.00;8.18;;;;;;;8.87;100.00;102179.69;5093337;28;20099;-55
2023/05/20 04:35:40;;;;;;;16.48;9.25;;;;;;;8.90;100.00;102185.03;5092711;28;20016;-55
2023/05/20 04:38:06;;;;;;;16.02;8.93;;;;;;;8.93;100.00;102181.75;5093513;28;20080;-55
2023/05/20 04:40:31;;;;;;;11.90;8.02;;;;;;;8.99;100.00;102183.00;5092883;28;20059;-55
2023/05/20 04:42:59;;;;;;;16.85;8.60;;;;;;;8.99;100.00;102182.13;5092747;28;20102;-55
2023/05/20 04:45:25;;;;;;;;;;;;;;;9.08;100.00;102174.91;5093242;28;20525;-55
2023/05/20 04:47:52;;;;;;;14.15;8.38;;;;;;;9.10;100.00;102175.88;5093074;28;19912;-55
2023/05/20 04:50:18;;;;;;;14.50;8.27;;;;;;;9.16;100.00;102176.22;5092277;28;20020;-56
2023/05/20 04:52:44;;;;;;;15.43;8.10;;;;;;;9.23;100.00;102187.75;5093024;28;20368;-55
2023/05/20 04:55:11;;;;;;;11.05;7.50;;;;;;;9.32;100.00;102182.25;5092917;28;20534;-55
2023/05/20 04:57:40;;;;;;;11.82;7.82;;;;;;;9.42;100.00;102188.81;5092468;28;20122;-55
2023/05/20 05:00:07;;;;;;;12.98;7.63;;;;;;;9.50;100.00;102193.59;5093169;28;20114;-55
2023/05/20 05:02:33;;;;;;;12.87;7.77;;;;;;;9.60;100.00;102183.78;5092382;28;20035;-55
2023/05/20 05:04:58;;;;;;;14.77;8.02;;;;;;;9.69;100.00;102184.28;5092367;28;20034;-54
2023/05/20 05:07:24;;;;;;;14.95;7.80;;;;;;;9.74;100.00;102182.84;5092849;28;20020;-56
2023/05/20 05:09:49;;;;;;;11.57;7.20;;;;;;;9.81;100.00;102184.06;5092835;28;20039;-55
2023/05/20 05:12:15;;;;;;;12.90;7.47;;;;;;;9.88;100.00;102176.75;5092720;28;20103;-55
2023/05/20 05:14:40;;;;;;;15.65;7.90;;;;;;;9.96;100.00;102172.00;5096996;28;20095;-56
2023/05/20 05:17:05;;;;;;;16.25;8.15;;;;;;;10.03;100.00;102166.41;5096210;28;20051;-55
2023/05/20 05:19:30;;;;;;;11.20;6.78;;;;;;;10.12;100.00;102171.16;5096891;28;20533;-55
2023/05/20 05:21:56;;;;;;;13.20;7.65;;;;;;;10.19;100.00;102170.66;5097160;28;20119;-55
2023/05/20 05:24:21;;;;;;;11.77;7.25;;;;;;;10.28;100.00;102169.38;5096110;28;20108;-55
2023/05/20 05:26:46;;;;;;;13.65;7.65;;;;;;;10.36;100.00;102165.53;5097079;28;20435;-55
2023/05/20 05:29:11;;;;;;;11.57;6.88;;;;;;;10.45;100.00;102166.00;5096969;28;20020;-54
2023/05/20 05:31:37;;;;;;;13.55;7.10;;;;;;;10.50;100.00;102161.09;5095780;28;20418;-55
2023/05/20 05:34:02;;;;;;;12.57;6.90;;;;;;;10.61;100.00;102172.81;5096824;28;20028;-56
2023/05/20 05:36:27;;;;;;;11.73;6.72;;;;;;;10.67;100.00;102167.97;5096381;28;20055;-55
2023/05/20 05:38:53;;;;;;;14.85;6.88;;;;;;;10.76;100.00;102166.69;5096117;28;20020;-56
2023/05/20 05:41:18;;;;;;;12.10;6.10;;;;;;;10.87;100.00;102166.41;5096294;28;20035;-55
2023/05/20 05:43:43;;;;;;;19.48;7.00;;;;;;;10.96;100.00;102167.66;5096407;28;20020;-55
2023/05/20 05:46:08;;;;;;;12.93;6.57;;;;;;;11.05;100.00;102157.78;5096152;28;20020;-56
2023/05/20 05:48:36;;;;;;;13.63;6.53;;;;;;;11.12;100.00;102170.19;5096179;28;20020;-55
2023/05/20 05:51:01;;;;;;;19.10;6.88;;;;;;;11.23;100.00;102168.09;5096696;28;20028;-55
2023/05/20 05:53:26;;;;;;;12.05;6.63;;;;;;;11.32;100.00;102171.16;5095719;28;20379;-55
2023/05/20 05:55:51;;;;;;;10.57;6.38;;;;;;;11.36;99.50;102161.84;5096423;28;20020;-55
2023/05/20 05:58:17;;;;;;;10.75;6.50;;;;;;;11.50;99.54;102160.81;5095924;28;20050;-55
2023/05/20 06:00:42;;;;;;;12.43;6.25;;;;;;;11.62;99.28;102157.91;5095762;28;20376;-55
2023/05/20 06:03:07;;;;;;;14.52;6.13;;;;;;;11.68;96.96;102158.19;5096299;28;20028;-55
2023/05/20 06:05:32;;;;;;;13.38;6.13;;;;;;;11.75;95.71;102164.53;5095633;28;20024;-55
2023/05/20 06:07:58;;;;;;;9.57;5.75;;;;;;;11.84;95.90;102166.66;5095706;28;20093;-55
2023/05/20 06:10:23;;;;;;;13.75;6.40;;;;;;;11.93;95.91;102163.56;5095825;28;20028;-55
2023/05/20 06:12:48;;;;;;;10.05;6.05;;;;;;;12.04;96.35;102167.56;5095835;28;20081;-55
2023/05/20 06:15:14;;;;;;;11.85;5.90;;;;;;;12.17;96.31;102161.25;5095471;28;20020;-55
2023/05/20 06:17:39;;;;;;;10.48;5.60;;;;;;;12.29;94.23;102168.66;5095471;28;20048;-55
2023/05/20 06:20:05;;;;;;;14.18;6.45;;;;;;;12.38;93.77;102166.47;5095924;28;20095;-56
2023/05/20 06:22:30;;;;;;;11.63;6.28;;;;;;;12.44;93.55;102161.56;5095002;28;20516;-56
2023/05/20 06:24:59;;;;;;;12.48;5.88;;;;;;;12.56;92.94;102149.97;5095562;28;20035;-55
2023/05/20 06:27:24;;;;;;;10.93;6.43;;;;;;;12.64;92.91;102154.66;5094884;28;20012;-55
2023/05/20 06:29:49;;;;;;;14.40;6.25;;;;;;;12.71;93.20;102150.63;5095750;28;20034;-55
2023/05/20 06:32:15;;;;;;;13.27;6.28;;;;;;;12.84;92.57;102145.13;5095629;28;20472;-55
2023/05/20 06:34:40;;;;;;;10.07;5.78;;;;;;;12.98;92.52;102139.66;5094826;28;20135;-56
2023/05/20 06:37:05;;;;;;;10.40;5.97;;;;;;;12.97;88.47;102136.16;5095690;28;20044;-55
2023/05/20 06:39:30;;;;;;;10.30;5.97;;;;;;;12.99;87.88;102131.94;5094765;28;20047;-55
2023/05/20 06:41:56;;;;;;;9.55;5.28;;;;;;;13.11;89.23;102128.94;5095081;28;20470;-56
2023/05/20 06:44:21;;;;;;;9.52;5.75;;;;;;;13.29;91.06;102133.97;5095149;28;20027;-56
2023/05/20 06:46:46;;;;;;;8.15;4.85;;;;;;;13.35;88.34;102128.16;5095162;28;20075;-55
2023/05/20 06:49:11;;;;;;;11.75;5.82;;;;;;;13.40;86.76;102129.25;5095012;28;20031;-54
2023/05/20 06:51:37;;;;;;;10.07;5.15;;;;;;;13.58;86.93;102135.94;5095017;28;20469;-54
2023/05/20 06:54:02;;;;;;;7.90;4.97;;;;;;;13.71;87.23;102130.44;5095197;28;20536;-55
2023/05/20 06:56:27;;;;;;;10.88;5.72;;;;;;;13.78;85.25;102124.63;5094528;28;20036;-54
2023/05/20 06:58:54;;;;;;;10.93;5.50;;;;;;;13.89;84.46;102130.22;5095143;28;20032;-56
2023/05/20 07:01:19;;;;;;;9.37;4.47;;;;;;;14.06;84.36;102122.16;5094624;28;20030;-56
2023/05/20 07:03:45;;;;;;;8.40;5.00;;;;;;;14.13;81.33;102119.81;5094520;28;20032;-55
2023/05/20 07:06:10;;;;;;;9.10;4.60;;;;;;;14.13;77.52;102119.81;5095247;28;20514;-55
2023/05/20 07:08:35;;;;;;;12.13;4.97;;;;;;;14.33;80.13;102119.63;5094634;28;20038;-55
2023/05/20 07:11:00;;;;;;;11.75;5.28;;;;;;;14.34;77.05;102118.81;5094457;28;20486;-56
2023/05/20 07:13:26;;;;;;;10.75;4.82;;;;;;;14.41;75.40;102120.81;5094614;28;20044;-56
2023/05/20 07:15:51;;;;;;;6.60;4.00;;;;;;;14.49;76.52;102118.47;5094641;28;20108;-56
2023/05/20 07:18:17;;;;;;;7.47;4.18;;;;;;;14.55;74.46;102117.78;5093602;28;20422;-56
2023/05/20 07:20:43;;;;;;;7.93;4.47;;;;;;;14.67;76.60;102117.34;5094782;28;20024;-55
2023/05/20 07:23:09;;;;;;;7.65;3.95;;;;;;;14.81;76.04;102110.91;5094623;28;20121;-56
2023/05/20 07:25:34;;;;;;;14.13;6.28;;;;;;;15.05;76.05;102102.13;5093778;28;20038;-56
2023/05/20 07:27:59;;;;;;;8.43;4.43;;;;;;;15.10;71.60;102101.44;5094632;28;20105;-56
2023/05/20 07:30:26;;;;;;;12.02;4.70;;;;;;;15.23;72.24;102097.50;5093919;28;20048;-56
2023/05/20 07:32:51;;;;;;;8.57;4.15;;;;;;;15.33;74.10;102106.44;5094080;28;20066;-56
2023/05/20 07:35:16;;;;;;;8.07;4.07;;;;;;;15.35;69.29;102106.50;5093559;28;20380;-56
2023/05/20 07:37:42;;;;;;;7.88;4.05;;;;;;;15.46;69.92;102105.97;5093881;28;20356;-56
2023/05/20 07:40:08;;;;;;;10.35;4.85;;;;;;;15.46;69.80;102108.56;5094449;28;20082;-56
2023/05/20 07:42:33;;;;;;;9.25;3.35;;;;;;;15.47;67.37;102104.28;5093874;28;20059;-56
2023/05/20 07:44:59;;;;;;;8.38;3.97;;;;;;;15.52;68.54;102104.38;5093495;28;20084;-56
2023/05/20 07:47:24;;;;;;;10.18;4.90;;;;;;;15.62;69.20;102094.31;5093826;28;20020;-55
2023/05/20 07:49:50;;;;;;;8.90;3.88;;;;;;;15.63;66.14;102095.19;5094119;28;20071;-56
2023/05/20 07:52:15;;;;;;;6.78;4.00;;;;;;;15.70;66.20;102102.34;5093580;28;20118;-56
2023/05/20 07:54:40;;;;;;;13.23;3.63;;;;;;;15.66;64.74;102092.69;5094211;28;20120;-56
2023/05/20 07:57:06;;;;;;;7.80;3.83;;;;;;;15.72;64.71;102090.25;5093807;28;20101;-56
2023/05/20 07:59:31;;;;;;;7.22;3.50;;;;;;;15.74;63.39;102105.91;5093345;28;20039;-56
2023/05/20 08:01:57;;;;;;;8.43;3.63;;;;;;;15.74;65.28;102098.13;5093841;28;20035;-56
2023/05/20 08:04:22;;;;;;;7.22;3.55;;;;;;;15.80;64.11;102088.78;5093262;28;20024;-55
2023/05/20 08:06:48;;;;;;;6.93;3.50;;;;;;;15.95;65.15;102082.25;5093628;28;20028;-56
2023/05/20 08:09:14;;;;;;;10.05;3.50;;;;;;;16.00;63.65;102093.66;5093980;28;20027;-56
2023/05/20 08:11:39;;;;;;;8.65;3.50;;;;;;;16.00;61.56;102083.25;5093314;28;20447;-56
2023/05/20 08:14:05;;;;;;;10.43;3.80;;;;;;;16.08;64.45;102086.94;5093139;28;20054;-56
2023/05/20 08:16:30;;;;;;;6.53;3.55;;;;;;;16.20;64.10;102088.09;5093235;28;20062;-55
2023/05/20 08:18:55;;;;;;;10.88;3.90;;;;;;;16.20;62.41;102080.31;5093388;28;20456;-56
2023/05/20 08:21:21;;;;;;;5.80;3.47;;;;;;;16.26;61.69;102080.47;5092962;28;20024;-56
2023/05/20 08:23:47;;;;;;;9.13;3.83;;;;;;;16.30;62.07;102074.50;5093743;28;20143;-56
2023/05/20 08:26:12;;;;;;;7.20;3.30;;;;;;;16.45;63.63;102077.50;5093287;28;20048;-56
2023/05/20 08:28:38;;;;;;;9.15;3.88;;;;;;;16.58;62.48;102070.88;5092697;28;20020;-56
2023/05/20 08:31:03;;;;;;;7.78;3.60;;;;;;;16.56;60.25;102067.34;5093414;28;20032;-56
2023/05/20 08:33:29;;;;;;;15.80;4.10;;;;;;;16.58;60.63;102064.78;5092858;28;20020;-56
2023/05/20 08:35:54;;;;;;;5.88;3.60;;;;;;;16.57;59.58;102066.50;5092956;28;20087;-56
2023/05/20 08:38:20;;;;;;;9.60;3.85;;;;;;;16.69;62.06;102063.31;5093151;28;20102;-56
2023/05/20 08:40:50;;;;;;;8.10;3.70;;;;;;;16.79;60.55;102070.50;5093018;28;20032;-56
2023/05/20 08:43:15;;;;;;;8.18;3.55;;;;;;;16.91;57.34;102063.84;5092637;28;20028;-56
2023/05/20 08:45:41;;;;;;;6.45;3.50;;;;;;;17.02;56.79;102062.38;5093372;28;20532;-56
2023/05/20 08:48:06;;;;;;;9.55;3.75;;;;;;;17.22;58.96;102059.31;5092573;28;20039;-56
2023/05/20 08:50:32;;;;;;;10.38;4.00;;;;;;;17.43;56.61;102065.00;5093044;28;20020;-56
2023/05/20 08:52:58;;;;;;;6.18;4.03;;;;;;;17.36;55.71;102057.88;5092849;28;20111;-56
2023/05/20 08:55:25;;;;;;;6.57;3.60;;;;;;;17.50;56.62;102062.50;5092372;28;20028;-56
2023/05/20 08:57:53;;;;;;;6.07;3.53;;;;;;;17.57;56.07;102057.47;5093114;28;20051;-56
2023/05/20 09:00:25;;;;;;;13.45;3.40;;;;;;;17.64;54.67;102063.66;5092497;28;20024;-55
2023/05/20 09:02:52;;;;;;;7.75;3.42;;;;;;;17.52;53.32;102066.91;5092641;28;20094;-56
2023/05/20 09:05:17;;;;;;;9.27;3.17;;;;;;;17.60;54.69;102059.25;5092754;28;20028;-56
2023/05/20 09:07:43;;;;;;;7.90;3.15;;;;;;;17.81;56.05;102055.28;5092852;28;20024;-55
2023/05/20 09:10:09;;;;;;;5.68;2.70;;;;;;;17.86;54.81;102045.84;5092446;28;20391;-56
2023/05/20 09:12:35;;;;;;;5.03;2.58;;;;;;;17.97;52.22;102054.75;5092544;28;20070;-56
2023/05/20 09:15:00;;;;;;;18.10;3.50;;;;;;;17.83;51.85;102058.78;5092612;28;20028;-56
2023/05/20 09:17:26;;;;;;;4.63;2.55;;;;;;;17.85;51.18;102050.16;5091914;28;20105;-56
2023/05/20 09:19:54;;;;;;;6.10;3.15;;;;;;;17.72;51.28;102059.47;5092948;28;20028;-56
2023/05/20 09:22:24;;;;;;;4.05;2.55;;;;;;;17.82;51.62;102046.59;5092188;28;20036;-56
2023/05/20 09:24:51;;;;;;;9.20;3.35;;;;;;;17.92;52.77;102043.31;5092279;28;20028;-56
2023/05/20 09:27:16;;;;;;;7.65;2.95;;;;;;;18.02;50.50;102049.63;5092499;28;20054;-56
2023/05/20 09:29:42;;;;;;;7.57;3.15;;;;;;;18.08;50.89;102050.59;5092510;28;20024;-56
2023/05/20 09:32:12;;;;;;;6.45;3.00;;;;;;;18.02;49.26;102060.91;5092180;28;20020;-56
2023/05/20 09:34:38;;;;;;;5.97;3.00;;;;;;;18.13;50.75;102042.88;5092467;28;20013;-56
2023/05/20 09:37:06;;;;;;;8.35;3.10;;;;;;;18.10;49.79;102045.41;5092406;28;20031;-56
2023/05/20 09:39:35;;;;;;;9.10;3.50;;;;;;;18.14;50.73;102038.53;5091982;28;20020;-55
2023/05/20 09:42:05;;;;;;;8.27;3.58;;;;;;;18.30;51.46;102045.75;5092505;28;20028;-56
2023/05/20 09:44:32;;;;;;;6.53;3.38;;;;;;;18.50;50.02;102040.88;5091980;28;20111;-56
2023/05/20 09:46:59;;;;;;;7.63;3.10;;;;;;;18.66;49.27;102044.59;5092646;28;20099;-56
2023/05/20 09:49:25;;;;;;;5.13;3.20;;;;;;;18.86;48.72;102033.56;5092050;28;20024;-55
2023/05/20 09:51:52;;;;;;;5.47;3.20;;;;;;;19.17;49.45;102036.63;5092010;28;20495;-56
2023/05/20 09:54:18;;;;;;;8.65;3.63;;;;;;;19.58;48.74;102044.09;5092148;28;20032;-56
2023/05/20 09:56:45;;;;;;;7.25;3.17;;;;;;;19.56;48.17;102035.34;5092482;28;20150;-56
2023/05/20 09:59:14;;;;;;;6.60;3.53;;;;;;;19.42;47.81;102036.06;5093842;28;20028;-56
2023/05/20 10:01:39;;;;;;;8.18;3.40;;;;;;;19.25;47.36;102029.78;5096003;28;20099;-56
2023/05/20 10:04:07;;;;;;;5.75;3.13;;;;;;;19.50;47.27;102017.00;5096019;28;20154;-57
2023/05/20 10:06:42;;;;;;;8.55;3.28;;;;;;;19.88;46.12;102021.75;5095534;28;20035;-56
2023/05/20 10:09:31;;;;;;;6.88;2.85;;;;;;;20.34;46.49;102022.16;5096291;28;20051;-56
2023/05/20 10:12:21;;;;;;;10.32;3.40;;;;;;;21.19;44.48;102016.59;5095975;28;20031;-56
2023/05/20 10:14:53;;;;;;;4.65;2.67;;;;;;;21.45;42.50;102007.94;5095749;28;20032;-56
2023/05/20 10:17:24;;;;;;;7.63;3.42;;;;;;;21.58;42.00;102012.38;5095275;28;20048;-56
2023/05/20 10:19:56;;;;;;;8.85;2.95;;;;;;;22.31;40.03;102004.53;5095589;28;20069;-56
2023/05/20 10:22:29;;;;;;;7.45;2.78;;;;;;;23.14;40.54;102014.00;5095756;28;20032;-56
2023/05/20 10:24:59;;;;;;;8.32;2.70;;;;;;;23.34;38.72;102012.19;5095673;28;20054;-56
2023/05/20 10:27:24;;;;;;;6.80;2.88;;;;;;;23.59;35.94;102006.78;5094902;28;20106;-56
2023/05/20 10:29:51;;;;;;;6.90;2.83;;;;;;;23.62;36.69;102006.75;5095762;28;20097;-56
2023/05/20 10:32:31;;;;;;;10.52;2.70;;;;;;;23.46;37.86;102003.34;5095221;28;20157;-56
2023/05/20 10:35:04;;;;;;;6.40;2.90;;;;;;;23.92;36.52;101996.06;5095341;28;20103;-56
2023/05/20 10:37:32;;;;;;;8.63;3.17;;;;;;;23.61;36.37;101986.56;5095291;28;20053;-56
2023/05/20 10:40:12;;;;;;;4.15;2.38;;;;;;;23.29;37.81;101994.66;5095202;28;20394;-56
2023/05/20 10:42:38;;;;;;;6.05;2.75;;;;;;;23.79;36.26;101980.31;5094566;28;20478;-56
2023/05/20 10:45:04;;;;;;;5.47;2.85;;;;;;;24.64;34.99;101995.41;5095334;28;20037;-56
2023/05/20 10:47:30;;;;;;;6.72;2.90;;;;;;;24.72;34.37;101982.13;5095156;28;20024;-56
2023/05/20 10:49:56;;;;;;;6.53;2.72;;;;;;;25.27;34.53;101980.56;5094917;28;20016;-56
2023/05/20 10:52:23;;;;;;;7.00;2.47;;;;;;;25.82;33.69;101982.44;5094868;28;20020;-56
2023/05/20 10:54:56;;;;;;;7.70;2.40;;;;;;;25.38;34.20;101995.41;5094783;28;20024;-56
2023/05/20 10:57:23;;;;;;;5.55;2.40;;;;;;;24.98;34.07;101979.19;5095073;28;20043;-55
2023/05/20 10:59:48;;;;;;;7.17;2.80;;;;;;;25.00;33.73;101981.81;5095094;28;20032;-55
2023/05/20 11:02:15;;;;;;;7.78;2.42;;;;;;;24.17;33.97;101975.66;5094686;28;20161;-56
2023/05/20 11:04:44;;;;;;;3.87;2.40;;;;;;;24.10;34.77;101981.88;5095139;28;20028;-56
2023/05/20 11:07:09;;;;;;;9.45;3.10;;;;;;;24.55;34.40;101968.25;5094747;28;20286;-56
2023/05/20 11:09:35;;;;;;;4.75;2.60;;;;;;;24.74;35.10;101958.38;5093582;28;20383;-56
2023/05/20 11:12:00;;;;;;;4.65;2.45;;;;;;;24.94;33.59;101966.91;5094405;28;20054;-56
2023/05/20 11:14:29;;;;;;;6.18;2.80;;;;;;;24.84;35.51;101959.16;5094400;28;20054;-56
2023/05/20 11:16:58;;;;;;;7.60;2.53;;;;;;;25.53;34.23;101963.50;5094246;28;20048;-56